createdAt,value
2023-03-06T00:12:27.738Z,24.85
2023-03-06T00:13:27.816Z,24.86
2023-03-06T00:14:27.910Z,24.85
2023-03-06T00:15:28.001Z,24.87
2023-03-06T00:16:28.148Z,24.83
2023-03-06T00:17:28.187Z,24.83
2023-03-06T00:18:28.267Z,24.83
2023-03-06T00:19:28.354Z,24.82
2023-03-06T00:20:28.879Z,24.83
2023-03-06T00:21:28.550Z,24.82
2023-03-06T00:22:28.636Z,24.84
2023-03-06T00:23:28.734Z,24.82
2023-03-06T00:24:28.832Z,24.84
2023-03-06T00:25:28.939Z,24.80
2023-03-06T00:26:29.033Z,24.79
2023-03-06T00:27:29.121Z,24.78
2023-03-06T00:28:29.308Z,24.81
2023-03-06T00:29:29.369Z,24.81
2023-03-06T00:30:29.381Z,24.80
2023-03-06T00:31:29.506Z,24.81
2023-03-06T00:32:29.603Z,24.79
2023-03-06T00:33:29.676Z,24.78
2023-03-06T00:34:29.749Z,24.78
2023-03-06T00:35:29.848Z,24.80
2023-03-06T00:36:29.933Z,24.77
2023-03-06T00:37:30.039Z,24.77
2023-03-06T00:38:30.126Z,24.76
2023-03-06T00:39:30.236Z,24.77
2023-03-06T00:40:30.321Z,24.76
2023-03-06T00:41:30.407Z,24.78
2023-03-06T00:42:30.498Z,24.77
2023-03-06T00:43:30.594Z,24.79
2023-03-06T00:44:30.681Z,24.77
2023-03-06T00:45:30.790Z,24.74
2023-03-06T00:46:30.873Z,24.74
2023-03-06T00:47:30.964Z,24.74
2023-03-06T00:48:31.048Z,24.74
2023-03-06T00:49:31.151Z,24.76
2023-03-06T00:50:31.237Z,24.76
2023-03-06T00:51:31.400Z,24.75
2023-03-06T00:52:31.422Z,24.75
2023-03-06T00:53:31.509Z,24.74
2023-03-06T00:54:31.603Z,24.73
2023-03-06T00:55:31.704Z,24.72
2023-03-06T00:56:31.797Z,24.73
2023-03-06T00:57:31.886Z,24.73
2023-03-06T00:58:32.051Z,24.73
2023-03-06T00:59:32.080Z,24.73
2023-03-06T01:00:32.163Z,24.73
2023-03-06T01:01:32.261Z,24.70
2023-03-06T01:02:32.380Z,24.74
2023-03-06T01:03:32.458Z,24.70
2023-03-06T01:04:32.550Z,24.71
2023-03-06T01:05:32.639Z,24.70
2023-03-06T01:06:32.720Z,24.70
2023-03-06T01:07:32.819Z,24.70
2023-03-06T01:08:32.916Z,24.70
2023-03-06T01:09:33.015Z,24.70
2023-03-06T01:10:33.110Z,24.71
2023-03-06T01:11:33.202Z,24.70
2023-03-06T02:00:37.793Z,24.61
2023-03-06T02:01:37.896Z,24.60
2023-03-06T02:02:38.012Z,24.59
2023-03-06T02:03:38.070Z,24.59
2023-03-06T02:05:38.240Z,24.60
2023-03-06T02:06:38.325Z,24.59
2023-03-06T02:07:38.419Z,24.59
2023-03-06T02:08:38.516Z,24.62
2023-03-06T02:09:38.617Z,24.60
2023-03-06T02:10:38.699Z,24.60
2023-03-06T02:11:38.895Z,24.61
2023-03-06T02:12:38.874Z,24.59
2023-03-06T02:13:38.968Z,24.57
2023-03-06T03:56:47.725Z,24.30
2023-03-06T03:58:47.967Z,24.30
2023-03-06T03:59:47.826Z,24.27
2023-03-06T04:00:47.872Z,24.29
2023-03-06T04:01:47.943Z,24.28
2023-03-06T04:02:47.960Z,24.30
2023-03-06T04:03:48.019Z,24.29
2023-03-06T04:04:48.099Z,24.30
2023-03-06T04:05:48.130Z,24.30
2023-03-06T04:06:48.175Z,24.28
2023-03-06T04:07:48.240Z,24.28
2023-03-06T04:08:48.310Z,24.29
2023-03-06T04:09:48.342Z,24.27
2023-03-06T04:10:48.404Z,24.27
2023-03-06T04:11:48.515Z,24.28
2023-03-06T04:12:48.516Z,24.26
2023-03-06T04:13:48.561Z,24.27
2023-03-06T04:14:48.611Z,24.28
2023-03-06T06:51:57.760Z,32.72
2023-03-06T06:52:57.841Z,32.85
2023-03-06T06:53:57.909Z,33.04
2023-03-06T06:54:57.988Z,33.15
2023-03-06T06:55:58.062Z,33.20
2023-03-06T06:56:58.158Z,33.62
2023-03-06T06:57:58.224Z,33.49
2023-03-06T06:59:13.951Z,33.66
2023-03-06T06:59:59.296Z,33.72
2023-03-06T07:00:58.297Z,33.94
2023-03-06T07:01:58.320Z,34.08
2023-03-06T07:02:58.333Z,34.25
2023-03-06T07:03:58.401Z,34.63
2023-03-06T07:05:05.383Z,34.98
2023-03-06T07:05:59.384Z,34.95
2023-03-06T07:06:58.385Z,35.27
2023-03-06T07:07:58.388Z,35.53
2023-03-06T07:08:58.393Z,35.50
2023-03-06T07:09:58.421Z,35.63
2023-03-06T07:10:58.434Z,35.94
2023-03-06T07:11:58.432Z,35.99
2023-03-06T07:12:58.432Z,36.15
2023-03-06T07:13:58.465Z,36.34
2023-03-06T07:14:58.499Z,36.50
2023-03-06T07:15:59.488Z,36.36
2023-03-06T07:16:58.618Z,36.67
2023-03-06T07:17:58.688Z,36.60
2023-03-06T07:18:58.714Z,36.82
2023-03-06T07:19:58.775Z,37.07
2023-03-06T07:21:01.280Z,37.33
2023-03-06T07:21:59.016Z,37.29
2023-03-06T07:22:59.048Z,36.82
2023-03-06T07:23:59.105Z,37.36
2023-03-06T07:24:59.141Z,37.74
2023-03-06T07:26:00.061Z,38.50
2023-03-06T07:26:59.547Z,38.17
2023-03-06T07:27:59.279Z,37.57
2023-03-06T07:28:59.300Z,36.37
2023-03-06T07:29:59.345Z,35.99
2023-03-06T07:30:59.417Z,33.80
2023-03-06T07:31:59.474Z,33.48
2023-03-06T07:32:59.534Z,32.68
2023-03-06T07:33:59.608Z,32.41
2023-03-06T07:35:18.758Z,32.18
2023-03-06T07:36:00.727Z,32.00
2023-03-06T07:36:59.756Z,31.81
2023-03-06T07:37:59.695Z,31.37
2023-03-06T07:38:59.707Z,30.94
2023-03-06T07:39:59.722Z,30.65
2023-03-06T07:40:59.728Z,32.03
2023-03-06T07:41:59.784Z,32.72
2023-03-06T07:43:16.926Z,32.84
2023-03-06T07:44:00.782Z,33.12
2023-03-06T07:44:59.772Z,33.26
2023-03-06T07:45:59.837Z,33.19
2023-03-06T07:46:59.787Z,33.17
2023-03-06T07:48:00.541Z,33.11
2023-03-06T07:48:59.820Z,33.25
2023-03-06T07:49:59.843Z,33.24
2023-03-06T07:50:59.844Z,33.43
2023-03-06T07:51:59.902Z,33.32
2023-03-06T07:52:59.975Z,33.40
2023-03-06T07:54:00.052Z,33.51
2023-03-06T07:55:01.053Z,33.87
2023-03-06T07:56:00.182Z,33.77
2023-03-06T07:57:00.244Z,34.03
2023-03-06T07:58:00.308Z,34.19
2023-03-06T07:59:00.349Z,34.18
2023-03-06T08:00:00.539Z,34.60
2023-03-06T08:01:00.456Z,34.51
2023-03-06T08:02:00.516Z,34.65
2023-03-06T08:03:00.624Z,34.73
2023-03-06T08:04:00.628Z,34.86
2023-03-06T08:05:00.674Z,34.89
2023-03-06T08:06:00.700Z,35.12
2023-03-06T08:07:00.729Z,35.29
2023-03-06T08:08:00.767Z,35.44
2023-03-06T08:09:00.811Z,35.74
2023-03-06T08:10:00.829Z,35.70
2023-03-06T08:11:00.872Z,35.87
2023-03-06T08:12:00.909Z,35.98
2023-03-06T08:13:00.931Z,36.08
2023-03-06T08:14:01.545Z,36.20
2023-03-06T08:15:01.165Z,36.27
2023-03-06T08:16:01.018Z,36.49
2023-03-06T08:17:01.010Z,36.74
2023-03-06T08:18:02.005Z,32.95
2023-03-06T08:19:01.047Z,31.85
2023-03-06T08:20:01.092Z,30.80
2023-03-06T08:21:01.152Z,29.72
2023-03-06T08:55:03.305Z,20.02
2023-03-06T08:56:03.442Z,19.99
2023-03-06T08:57:03.456Z,19.74
2023-03-06T08:58:03.534Z,19.80
2023-03-06T08:59:03.620Z,19.79
2023-03-06T09:00:03.715Z,19.72
2023-03-06T09:01:03.885Z,19.59
2023-03-06T09:02:03.896Z,19.55
2023-03-06T09:03:03.952Z,19.48
2023-03-06T09:04:04.039Z,19.37
2023-03-06T09:05:04.131Z,19.41
2023-03-06T09:06:04.217Z,19.37
2023-03-06T09:08:04.443Z,19.23
2023-03-06T09:09:04.577Z,19.16
2023-03-06T09:10:04.473Z,19.08
2023-03-06T09:11:04.544Z,19.08
2023-03-06T09:12:04.629Z,18.94
2023-03-06T09:13:04.685Z,18.94
2023-03-06T09:14:04.761Z,19.86
2023-03-06T09:16:04.892Z,21.06
2023-03-06T09:17:04.992Z,20.90
2023-03-06T09:18:05.127Z,21.15
2023-03-06T09:19:05.164Z,21.96
2023-03-06T09:20:05.239Z,22.56
2023-03-06T09:42:06.279Z,27.11
2023-03-06T09:43:06.315Z,27.30
2023-03-06T09:44:06.401Z,28.52
2023-03-06T09:45:06.475Z,27.93
2023-03-06T09:46:06.553Z,27.94
2023-03-06T09:47:06.583Z,27.88
2023-03-06T09:48:06.627Z,28.04
2023-03-06T09:49:06.757Z,28.17
2023-03-06T09:50:06.706Z,28.43
2023-03-06T09:51:06.819Z,28.69
2023-03-06T09:52:06.786Z,26.42
2023-03-06T09:53:06.927Z,24.31
2023-03-06T09:54:06.898Z,23.03
2023-03-06T09:55:06.930Z,22.31
2023-03-06T09:56:06.993Z,21.91
2023-03-06T09:57:07.121Z,22.80
2023-03-06T09:58:07.579Z,23.19
2023-03-06T09:59:07.225Z,23.70
2023-03-06T10:00:07.360Z,23.90
2023-03-06T10:01:07.353Z,24.81
2023-03-06T10:02:07.450Z,24.58
2023-03-06T10:03:07.503Z,24.74
2023-03-06T10:04:07.430Z,25.06
2023-03-06T10:05:07.515Z,25.34
2023-03-06T10:06:07.558Z,25.29
2023-03-06T10:07:07.642Z,25.66
2023-03-06T10:08:07.708Z,25.78
2023-03-06T10:09:07.789Z,25.85
2023-03-06T10:10:07.802Z,26.03
2023-03-06T10:11:07.860Z,26.11
2023-03-06T10:12:07.889Z,26.56
2023-03-06T10:13:07.927Z,26.71
2023-03-06T10:14:07.950Z,27.03
2023-03-06T10:15:07.977Z,27.19
2023-03-06T10:16:08.126Z,27.59
2023-03-06T10:17:08.027Z,27.29
2023-03-06T10:18:08.051Z,27.90
2023-03-06T10:19:08.028Z,28.17
2023-03-06T10:20:08.031Z,28.15
2023-03-06T10:21:18.651Z,28.28
2023-03-06T10:22:09.030Z,28.42
2023-03-06T10:23:08.106Z,28.13
2023-03-06T10:24:08.027Z,28.40
2023-03-06T10:25:08.082Z,28.20
2023-03-06T10:26:08.049Z,28.18
2023-03-06T10:27:08.044Z,28.49
2023-03-06T10:28:09.113Z,28.58
2023-03-06T10:29:08.022Z,28.67
2023-03-06T10:30:08.021Z,28.76
2023-03-06T10:31:08.141Z,29.03
2023-03-06T10:32:08.044Z,29.15
2023-03-06T10:33:08.084Z,29.21
2023-03-06T10:34:08.025Z,29.40
2023-03-06T10:35:08.032Z,29.64
2023-03-06T10:36:08.019Z,29.71
2023-03-06T10:37:08.016Z,29.76
2023-03-06T10:39:08.010Z,29.87
2023-03-06T10:40:08.576Z,30.12
2023-03-06T10:41:08.022Z,30.28
2023-03-06T10:42:08.074Z,30.59
2023-03-06T10:43:11.744Z,30.66
2023-03-06T10:44:08.006Z,30.79
2023-03-06T10:45:08.000Z,31.34
2023-03-06T10:46:08.019Z,31.15
2023-03-06T10:47:07.965Z,31.36
2023-03-06T10:48:07.959Z,31.49
2023-03-06T10:49:07.958Z,31.53
2023-03-06T11:39:10.133Z,39.21
2023-03-06T11:40:10.087Z,39.30
2023-03-06T11:41:10.095Z,40.62
2023-03-06T11:42:10.130Z,40.12
2023-03-06T11:43:10.180Z,39.62
2023-03-06T11:44:10.314Z,39.76
2023-03-06T11:45:10.295Z,40.25
2023-03-06T11:46:10.356Z,41.06
2023-03-06T11:47:10.390Z,40.67
2023-03-06T11:48:10.431Z,40.75
2023-03-06T11:49:10.476Z,40.76
2023-03-06T11:50:10.522Z,41.05
2023-03-06T11:51:10.568Z,41.25
2023-03-06T11:52:10.605Z,42.61
2023-03-06T11:53:11.136Z,42.44
2023-03-06T11:54:10.711Z,42.50
2023-03-06T11:55:10.723Z,42.41
2023-03-06T11:56:10.751Z,41.85
2023-03-06T11:57:10.796Z,42.29
2023-03-06T11:58:10.819Z,42.99
2023-03-06T11:59:21.763Z,42.46
2023-03-06T12:00:11.119Z,42.12
2023-03-06T12:01:11.069Z,41.84
2023-03-06T12:02:11.209Z,41.55
2023-03-06T12:03:11.100Z,41.37
2023-03-06T12:05:11.200Z,41.24
2023-03-06T12:06:11.212Z,41.15
2023-03-06T12:07:11.278Z,41.30
2023-03-06T12:08:11.340Z,41.18
2023-03-06T12:09:11.401Z,41.16
2023-03-06T12:10:11.452Z,41.14
2023-03-06T12:11:11.519Z,41.10
2023-03-06T12:12:11.577Z,41.09
2023-03-06T12:13:11.643Z,41.09
2023-03-06T12:14:11.715Z,41.09
2023-03-06T12:15:11.769Z,41.02
2023-03-06T12:16:12.671Z,41.04
2023-03-06T12:17:11.898Z,41.03
2023-03-06T12:19:11.997Z,40.96
2023-03-06T12:20:12.010Z,41.01
2023-03-06T12:21:12.038Z,40.98
2023-03-06T12:22:12.076Z,41.01
2023-03-06T12:23:15.730Z,40.92
2023-03-06T12:24:12.073Z,40.03
2023-03-06T12:25:12.078Z,39.50
2023-03-06T12:26:12.070Z,39.11
2023-03-06T12:27:12.080Z,39.03
2023-03-06T12:28:12.075Z,37.59
2023-03-06T12:29:12.101Z,38.69
2023-03-06T12:30:12.159Z,37.97
2023-03-06T12:31:12.097Z,38.28
2023-03-06T12:32:12.243Z,38.27
2023-03-06T13:25:13.678Z,36.23
2023-03-06T13:29:13.766Z,36.12
2023-03-06T13:31:26.567Z,36.09
2023-03-06T13:32:14.371Z,36.10
2023-03-06T13:33:13.379Z,36.08
2023-03-06T13:34:13.387Z,36.06
2023-03-06T13:35:13.394Z,36.01
2023-03-06T13:36:13.370Z,35.99
2023-03-06T13:37:13.387Z,35.94
2023-03-06T13:38:14.179Z,35.94
2023-03-06T13:39:13.388Z,35.91
2023-03-06T13:40:13.455Z,35.90
2023-03-06T13:41:13.421Z,35.86
2023-03-06T13:42:13.433Z,35.81
2023-03-06T13:43:13.457Z,35.79
2023-03-06T13:44:13.526Z,35.75
2023-03-06T13:45:13.580Z,35.74
2023-03-06T13:46:13.655Z,35.72
2023-03-06T13:47:13.716Z,35.67
2023-03-06T13:48:37.403Z,35.67
2023-03-06T13:49:14.789Z,35.64
2023-03-06T13:50:13.806Z,35.61
2023-03-06T13:51:13.808Z,35.57
2023-03-06T13:52:13.821Z,35.55
2023-03-06T13:53:13.826Z,35.52
2023-03-06T13:54:13.912Z,35.53
2023-03-06T13:55:13.830Z,35.49
2023-03-06T13:56:13.841Z,35.45
2023-03-06T13:57:13.856Z,35.42
2023-03-06T13:58:13.889Z,35.41
2023-03-06T13:59:14.337Z,35.39
2023-03-06T14:00:14.141Z,35.35
2023-03-06T14:01:14.126Z,35.34
2023-03-06T14:02:14.386Z,35.30
2023-03-06T14:03:14.238Z,35.28
2023-03-06T14:04:14.319Z,35.25
2023-03-06T14:05:14.385Z,35.24
2023-03-06T14:06:14.464Z,35.22
2023-03-06T14:07:14.531Z,35.19
2023-03-06T14:08:14.615Z,35.17
2023-03-06T14:09:14.680Z,35.15
2023-03-06T14:10:14.748Z,35.12
2023-03-06T14:11:14.829Z,35.10
2023-03-06T14:12:14.890Z,35.09
2023-03-06T14:13:14.980Z,35.03
2023-03-06T14:14:15.038Z,35.03
2023-03-06T14:15:15.114Z,34.98
2023-03-06T14:16:15.276Z,34.96
2023-03-06T14:17:15.281Z,34.94
2023-03-06T14:18:15.342Z,34.92
2023-03-06T14:19:15.435Z,34.91
2023-03-06T14:20:15.540Z,34.89
2023-03-06T14:21:15.580Z,34.89
2023-03-06T14:22:15.652Z,34.88
2023-03-06T14:23:15.739Z,34.86
2023-03-06T14:24:15.802Z,34.83
2023-03-06T14:25:15.878Z,34.79
2023-03-06T14:26:15.955Z,34.80
2023-03-06T14:27:16.030Z,34.77
2023-03-06T14:53:18.040Z,34.26
2023-03-06T14:54:18.236Z,34.24
2023-03-06T14:55:18.166Z,34.22
2023-03-06T14:56:18.243Z,34.20
2023-03-06T14:57:18.309Z,34.22
2023-03-06T14:58:18.403Z,34.18
2023-03-06T14:59:18.433Z,34.16
2023-03-06T15:01:18.590Z,34.12
2023-03-06T15:02:18.649Z,34.10
2023-03-06T15:03:18.720Z,34.09
2023-03-06T15:04:18.821Z,34.07
2023-03-06T15:05:18.975Z,34.05
2023-03-06T17:11:23.291Z,32.51
2023-03-06T17:12:23.342Z,32.49
2023-03-06T17:13:23.380Z,32.51
2023-03-06T17:14:23.428Z,32.46
2023-03-06T17:15:23.480Z,32.46
2023-03-06T17:16:23.504Z,32.43
2023-03-06T17:17:23.550Z,32.42
2023-03-06T17:18:23.587Z,32.40
2023-03-06T17:19:23.637Z,32.44
2023-03-06T17:20:23.690Z,32.43
2023-03-06T17:21:23.717Z,32.42
2023-03-06T17:22:23.765Z,32.40
2023-03-06T17:23:23.810Z,32.41
2023-03-06T17:24:23.865Z,32.40
2023-03-06T17:25:23.908Z,32.39
2023-03-06T17:26:23.953Z,32.38
2023-03-06T17:27:23.999Z,32.35
2023-03-06T17:28:24.048Z,32.32
2023-03-06T17:29:24.072Z,32.31
2023-03-06T17:30:24.139Z,32.32
2023-03-06T17:31:24.288Z,32.31
2023-03-06T17:32:24.302Z,32.29
2023-03-06T17:33:24.278Z,32.27
2023-03-06T17:34:24.739Z,32.24
2023-03-06T17:35:24.418Z,32.22
2023-03-06T17:36:24.504Z,32.17
2023-03-06T17:37:24.546Z,32.19
2023-03-06T17:38:24.514Z,32.11
2023-03-06T17:39:24.574Z,32.12
2023-03-06T17:40:24.614Z,32.09
2023-03-06T17:41:24.673Z,32.14
2023-03-06T17:42:24.719Z,32.09
2023-03-06T17:43:24.772Z,32.13
2023-03-06T17:44:24.815Z,32.13
2023-03-06T17:45:24.876Z,32.14
2023-03-06T17:46:24.948Z,32.09
2023-03-06T17:47:24.973Z,32.11
2023-03-06T17:48:25.019Z,32.10
2023-03-06T17:49:25.119Z,32.09
2023-03-06T17:50:25.136Z,32.08
2023-03-06T17:51:25.181Z,32.09
2023-03-06T17:52:25.244Z,32.04
2023-03-06T17:53:25.291Z,32.03
2023-03-06T17:54:25.346Z,32.05
2023-03-06T17:55:25.399Z,32.02
2023-03-06T17:56:25.785Z,32.03
2023-03-06T17:57:25.508Z,31.98
2023-03-06T20:07:33.345Z,30.59
2023-03-06T20:08:33.413Z,30.58
2023-03-06T20:09:33.491Z,30.61
2023-03-06T22:17:43.387Z,29.39
2023-03-06T22:25:43.346Z,29.32
2023-03-06T22:26:43.508Z,29.31
2023-03-06T22:27:43.504Z,29.31
2023-03-06T22:28:43.585Z,29.29
2023-03-06T22:29:43.734Z,29.27
2023-03-06T22:30:43.806Z,29.30
2023-03-06T22:31:44.428Z,29.26
2023-03-06T22:32:43.969Z,29.25
2023-03-06T22:33:43.992Z,29.21
2023-03-06T22:34:44.887Z,29.26
2023-03-06T22:35:44.152Z,29.22
2023-03-06T22:36:44.234Z,29.17
2023-03-06T22:37:44.395Z,29.17
2023-03-06T22:38:44.390Z,29.17
2023-03-06T22:39:44.468Z,29.16
2023-03-06T22:40:44.586Z,29.16
2023-03-06T22:41:44.618Z,29.14
2023-03-06T22:42:44.701Z,29.13
2023-03-06T22:43:44.786Z,29.14
2023-03-06T22:44:44.859Z,29.13
2023-03-06T22:45:45.013Z,29.13
2023-03-06T22:46:45.033Z,29.13
2023-03-06T22:47:45.103Z,29.10
2023-03-06T22:48:45.180Z,29.12
2023-03-06T22:49:45.243Z,29.09
2023-03-06T22:50:45.341Z,29.08
2023-03-06T22:51:45.405Z,29.06
2023-03-06T22:52:45.494Z,29.07
2023-03-06T22:53:45.639Z,29.03
2023-03-06T22:54:45.898Z,29.06
2023-03-06T22:55:45.739Z,29.05
2023-03-06T22:56:45.824Z,29.03
2023-03-06T22:57:45.901Z,29.01
2023-03-06T22:58:45.970Z,28.97
2023-03-06T22:59:46.053Z,28.99
2023-03-06T23:00:46.129Z,28.97
2023-03-06T23:01:46.272Z,29.00
2023-03-06T23:02:46.295Z,28.97
